Annandale, Pennsylvania
Current Conditions -  °F | °C
As of 12:55 PM on Monday 24 Nov 2014 (Local Time) from KFKL Reporting Station
Overcast Overcast  
Wind Chill: 63°   Ceiling: 8500
Heat Index: 63°   Visibility: 10mi
Dew Point: 45°   Wind: 21mph
Humidity: 52%   Direction: 200°SSW
Pressure: 29.37"   Gusts: 39mph
Location:  41.1142°N, 79.9031°W
Report Text: KFKL 241755Z AUTO 20018G34KT 10SM FEW070 OVC085 17/07 A2937 RMK AO1 60001 10180 20130 57010
Loading
Personal Weather Stations






























Interactive Weather Map New forecast layout! Learn more

10-Day Weather Forecast

Advertisements
Track Severe Weather on mobile